Mount Cobb, Pennsylvania
Current Conditions -  °F | °C
As of 10:54 PM on Saturday 20 Dec 2014 (Local Time) from KAVP Reporting Station
Overcast Overcast  
Wind Chill: 30°   Ceiling: 2300
Heat Index: 30°   Visibility: 10mi
Dew Point: 19°   Wind: 3mph
Humidity: 64%   Direction: 290°WNW
Pressure: 30.26"   Gusts: NA
Location:  41.4513°N, 75.4243°W
Report Text: KAVP 210354Z AUTO 29003KT 10SM OVC023 M01/M07 A3026 RMK AO2 SLP255 T10111072
Loading
Personal Weather Stations






























Interactive Weather Map New forecast layout! Learn more

10-Day Weather Forecast

Advertisements
Track Severe Weather on mobile